createdAt,value
2023-02-12T00:00:26.960Z,5.62
2023-02-12T00:02:29.361Z,5.51
2023-02-12T00:04:31.622Z,5.64
2023-02-12T00:06:33.661Z,5.67
2023-02-12T00:08:36.222Z,5.61
2023-02-12T00:10:43.202Z,5.57
2023-02-12T00:12:45.413Z,5.64
2023-02-12T00:14:47.825Z,5.64
2023-02-12T00:16:50.388Z,5.71
2023-02-12T00:18:54.087Z,5.72
2023-02-12T00:20:59.880Z,5.64
2023-02-12T00:23:01.988Z,5.71
2023-02-12T00:25:04.929Z,5.72
2023-02-12T00:27:06.936Z,5.71
2023-02-12T00:29:13.288Z,5.71
2023-02-12T00:31:18.798Z,5.71
2023-02-12T00:33:23.635Z,5.70
2023-02-12T00:35:28.091Z,5.70
2023-02-12T00:37:30.937Z,5.58
2023-02-12T00:39:33.118Z,5.52
2023-02-12T00:41:35.113Z,5.58
2023-02-12T00:43:37.302Z,5.65
2023-02-12T00:45:39.702Z,5.65
2023-02-12T00:47:41.771Z,5.65
2023-02-12T00:49:43.708Z,5.71
2023-02-12T00:51:46.008Z,5.67
2023-02-12T00:53:48.071Z,5.61
2023-02-12T00:55:50.395Z,5.61
2023-02-12T00:57:52.432Z,5.64
2023-02-12T00:59:54.493Z,5.64
2023-02-12T01:01:56.850Z,5.68
2023-02-12T01:03:59.728Z,5.62
2023-02-12T01:06:02.177Z,5.65
2023-02-12T01:08:04.977Z,5.67
2023-02-12T01:10:08.236Z,5.65
2023-02-12T01:12:10.614Z,5.68
2023-02-12T01:14:12.828Z,5.69
2023-02-12T01:16:17.778Z,5.65
2023-02-12T01:18:20.155Z,5.63
2023-02-12T01:20:25.306Z,5.61
2023-02-12T01:22:28.268Z,5.64
2023-02-12T01:24:30.800Z,5.63
2023-02-12T01:26:33.905Z,5.64
2023-02-12T01:28:40.630Z,5.62
2023-02-12T01:30:44.208Z,5.63
2023-02-12T01:32:46.496Z,5.58
2023-02-12T01:34:49.289Z,5.56
2023-02-12T01:36:51.350Z,5.56
2023-02-12T01:38:53.453Z,5.55
2023-02-12T01:41:03.396Z,5.52
2023-02-12T01:43:07.660Z,5.45
2023-02-12T01:45:15.414Z,5.44
2023-02-12T01:47:18.676Z,5.49
2023-02-12T01:49:43.592Z,5.45
2023-02-12T01:51:48.890Z,5.51
2023-02-12T01:53:54.880Z,5.47
2023-02-12T01:55:59.939Z,5.47
2023-02-12T01:58:03.196Z,5.45
2023-02-12T02:00:10.664Z,5.47
2023-02-12T02:02:18.961Z,5.47
2023-02-12T02:04:29.067Z,5.49
2023-02-12T02:06:49.684Z,5.49
2023-02-12T02:08:52.081Z,5.50
2023-02-12T02:10:57.262Z,5.49
2023-02-12T02:13:17.604Z,5.44
2023-02-12T02:15:20.022Z,5.46
2023-02-12T02:17:57.230Z,5.38
2023-02-12T02:20:29.782Z,5.36
2023-02-12T02:22:43.959Z,5.36
2023-02-12T02:25:23.687Z,5.34
2023-02-12T02:27:44.861Z,5.38
2023-02-12T02:30:22.851Z,5.40
2023-02-12T02:32:35.866Z,5.32
2023-02-12T02:34:46.404Z,5.36
2023-02-12T02:37:01.521Z,5.40
2023-02-12T02:39:24.610Z,5.29
2023-02-12T02:41:33.968Z,5.35
2023-02-12T02:43:43.324Z,5.35
2023-02-12T02:45:49.616Z,5.43
2023-02-12T02:48:03.829Z,5.37
2023-02-12T02:50:16.082Z,5.33
2023-02-12T02:52:34.270Z,5.34
2023-02-12T02:54:45.920Z,5.31
2023-02-12T02:56:51.341Z,5.35
2023-02-12T02:59:21.050Z,5.32
2023-02-12T03:01:32.285Z,5.35
2023-02-12T03:03:55.021Z,5.31
2023-02-12T03:06:04.466Z,5.32
2023-02-12T03:08:11.205Z,5.31
2023-02-12T03:10:27.768Z,5.29
2023-02-12T03:12:51.064Z,5.30
2023-02-12T03:15:01.857Z,5.34
2023-02-12T03:17:21.799Z,5.27
2023-02-12T03:19:27.303Z,5.34
2023-02-12T03:21:54.988Z,5.26
2023-02-12T03:24:08.141Z,5.30
2023-02-12T03:26:15.671Z,5.30
2023-02-12T03:28:27.382Z,5.31
2023-02-12T03:30:42.224Z,5.25
2023-02-12T03:33:35.964Z,5.23
2023-02-12T03:35:51.683Z,5.22
2023-02-12T03:38:04.209Z,5.24
2023-02-12T03:40:22.444Z,5.23
2023-02-12T03:42:29.633Z,5.27
2023-02-12T03:44:41.197Z,5.24
2023-02-12T03:47:03.206Z,5.24
2023-02-12T03:49:12.580Z,5.23
2023-02-12T03:51:27.688Z,5.22
2023-02-12T03:53:32.585Z,5.27
2023-02-12T03:55:38.606Z,5.27
2023-02-12T03:57:45.299Z,5.27
2023-02-12T03:59:48.266Z,5.29
2023-02-12T04:01:52.999Z,5.26
2023-02-12T04:03:56.212Z,5.29
2023-02-12T04:05:58.306Z,5.27
2023-02-12T04:08:02.742Z,5.27
2023-02-12T04:10:05.005Z,5.28
2023-02-12T04:12:38.205Z,5.23
2023-02-12T04:15:08.083Z,5.16
2023-02-12T04:17:19.092Z,5.19
2023-02-12T04:19:35.079Z,5.18
2023-02-12T04:22:12.326Z,5.17
2023-02-12T04:24:29.280Z,5.19
2023-02-12T04:26:48.094Z,5.13
2023-02-12T04:29:01.953Z,5.20
2023-02-12T04:31:13.292Z,5.17
2023-02-12T04:33:21.591Z,5.18
2023-02-12T04:35:35.960Z,5.14
2023-02-12T04:37:49.136Z,5.16
2023-02-12T04:39:53.521Z,5.20
2023-02-12T04:42:00.050Z,5.18
2023-02-12T04:44:15.217Z,5.14
2023-02-12T04:46:17.581Z,5.21
2023-02-12T04:48:20.360Z,5.21
2023-02-12T04:50:22.972Z,5.19
2023-02-12T04:52:28.009Z,5.23
2023-02-12T04:54:29.963Z,5.22
2023-02-12T04:56:32.276Z,5.18
2023-02-12T04:58:37.324Z,5.17
2023-02-12T05:00:39.583Z,5.19
2023-02-12T05:02:41.951Z,5.18
2023-02-12T05:04:44.055Z,5.16
2023-02-12T05:06:46.757Z,5.20
2023-02-12T05:08:53.266Z,5.17
2023-02-12T05:10:55.332Z,5.17
2023-02-12T05:12:57.358Z,5.19
2023-02-12T05:14:59.691Z,5.19
2023-02-12T05:17:02.293Z,5.14
2023-02-12T05:19:04.546Z,5.14
2023-02-12T05:21:06.641Z,5.15
2023-02-12T05:23:08.842Z,5.15
2023-02-12T05:25:12.074Z,5.18
2023-02-12T05:27:14.260Z,5.16
2023-02-12T05:29:16.307Z,5.15
2023-02-12T05:31:21.413Z,5.17
2023-02-12T05:33:24.186Z,5.13
2023-02-12T05:35:26.372Z,5.13
2023-02-12T05:37:28.515Z,5.15
2023-02-12T05:39:30.628Z,5.13
2023-02-12T05:41:35.393Z,5.15
2023-02-12T05:43:37.773Z,5.15
2023-02-12T05:45:41.649Z,5.11
2023-02-12T05:47:43.815Z,5.12
2023-02-12T05:49:45.792Z,5.13
2023-02-12T05:51:47.944Z,5.11
2023-02-12T05:53:52.163Z,5.13
2023-02-12T05:55:54.582Z,5.15
2023-02-12T05:57:56.908Z,5.13
2023-02-12T05:59:58.989Z,5.13
2023-02-12T06:02:01.189Z,5.12
2023-02-12T06:04:06.044Z,5.15
2023-02-12T06:06:10.651Z,5.15
2023-02-12T06:08:13.151Z,5.13
2023-02-12T06:10:15.203Z,5.13
2023-02-12T06:12:17.326Z,5.13
2023-02-12T06:14:20.950Z,5.12
2023-02-12T06:16:27.984Z,5.12
2023-02-12T06:18:30.772Z,5.11
2023-02-12T06:20:33.139Z,5.11
2023-02-12T06:22:35.381Z,5.12
2023-02-12T06:24:37.396Z,5.14
2023-02-12T06:26:39.612Z,5.12
2023-02-12T06:28:41.813Z,5.11
2023-02-12T06:30:44.254Z,5.13
2023-02-12T06:32:50.257Z,5.09
2023-02-12T06:34:52.822Z,5.16
2023-02-12T06:36:54.913Z,5.15
2023-02-12T06:38:57.839Z,5.18
2023-02-12T06:41:03.083Z,5.19
2023-02-12T06:43:05.582Z,5.20
2023-02-12T06:45:08.074Z,5.18
2023-02-12T06:47:10.196Z,5.18
2023-02-12T06:49:13.353Z,5.19
2023-02-12T06:51:22.153Z,5.17
2023-02-12T06:53:24.231Z,5.20
2023-02-12T06:55:26.476Z,5.15
2023-02-12T06:57:30.220Z,5.15
2023-02-12T06:59:32.862Z,5.16
2023-02-12T07:01:34.999Z,5.16
2023-02-12T07:03:38.050Z,5.21
2023-02-12T07:05:42.985Z,5.21
2023-02-12T07:07:45.212Z,5.19
2023-02-12T07:09:47.266Z,5.23
2023-02-12T07:11:49.560Z,5.21
2023-02-12T07:13:51.711Z,5.18
2023-02-12T07:15:54.178Z,5.23
2023-02-12T07:17:56.370Z,5.27
2023-02-12T07:20:01.491Z,5.21
2023-02-12T07:22:03.800Z,5.29
2023-02-12T07:24:06.073Z,5.40
2023-02-12T07:26:11.389Z,5.45
2023-02-12T07:28:13.933Z,5.43
2023-02-12T07:30:16.241Z,5.53
2023-02-12T07:32:18.272Z,5.45
2023-02-12T07:34:20.592Z,5.38
2023-02-12T07:36:24.643Z,5.52
2023-02-12T07:38:26.853Z,5.54
2023-02-12T07:40:28.934Z,5.56
2023-02-12T07:42:31.405Z,5.53
2023-02-12T07:44:39.446Z,5.39
2023-02-12T07:46:48.626Z,5.49
2023-02-12T07:48:51.709Z,5.56
2023-02-12T07:50:53.807Z,5.54
2023-02-12T07:52:55.868Z,5.59
2023-02-12T07:55:01.159Z,5.67
2023-02-12T07:57:03.729Z,5.64
2023-02-12T07:59:08.122Z,5.53
2023-02-12T08:01:29.529Z,5.36
2023-02-12T08:03:31.699Z,5.58
2023-02-12T08:05:33.838Z,5.75
2023-02-12T08:07:36.119Z,5.83
2023-02-12T08:09:38.138Z,5.82
2023-02-12T08:11:41.405Z,5.90
2023-02-12T08:13:44.677Z,5.99
2023-02-12T08:15:46.787Z,6.00
2023-02-12T08:17:48.917Z,6.03
2023-02-12T08:19:51.053Z,6.08
2023-02-12T08:21:54.758Z,6.13
2023-02-12T08:23:58.560Z,6.08
2023-02-12T08:26:29.214Z,6.16
2023-02-12T08:28:31.490Z,6.25
2023-02-12T08:30:33.846Z,6.29
2023-02-12T08:32:35.964Z,6.20
2023-02-12T08:34:38.024Z,6.30
2023-02-12T08:36:40.756Z,6.35
2023-02-12T08:38:44.746Z,6.41
2023-02-12T08:40:46.853Z,6.43
2023-02-12T08:42:48.893Z,6.48
2023-02-12T08:44:51.041Z,6.58
2023-02-12T08:46:55.659Z,6.63
2023-02-12T08:48:59.781Z,6.67
2023-02-12T08:51:07.880Z,6.66
2023-02-12T08:53:09.942Z,6.71
2023-02-12T08:55:12.113Z,6.81
2023-02-12T08:57:14.188Z,6.91
2023-02-12T08:59:17.335Z,6.93
2023-02-12T09:01:21.860Z,6.98
2023-02-12T09:03:24.716Z,7.03
2023-02-12T09:05:27.359Z,7.10
2023-02-12T09:07:29.381Z,7.12
2023-02-12T09:09:31.542Z,7.17
2023-02-12T09:11:35.451Z,7.16
2023-02-12T09:13:37.646Z,7.24
2023-02-12T09:15:45.169Z,7.32
2023-02-12T09:17:47.284Z,7.33
2023-02-12T09:19:49.331Z,7.38
2023-02-12T09:21:56.572Z,7.42
2023-02-12T09:23:59.361Z,7.53
2023-02-12T09:26:05.067Z,7.49
2023-02-12T09:28:07.406Z,7.52
2023-02-12T09:30:10.211Z,7.61
2023-02-12T09:32:12.519Z,7.68
2023-02-12T09:34:14.696Z,7.71
2023-02-12T09:36:17.921Z,7.78
2023-02-12T09:38:20.091Z,7.77
2023-02-12T09:40:45.240Z,7.78
2023-02-12T09:43:02.512Z,7.81
2023-02-12T09:45:45.501Z,7.86
2023-02-12T09:48:28.445Z,7.80
2023-02-12T09:50:44.990Z,7.90
2023-02-12T09:52:50.325Z,8.00
2023-02-12T09:54:53.821Z,8.02
2023-02-12T09:56:59.091Z,8.00
2023-02-12T09:59:04.827Z,8.03
2023-02-12T10:01:14.971Z,8.01
2023-02-12T10:03:18.360Z,8.07
2023-02-12T10:05:36.807Z,8.06
2023-02-12T10:08:12.922Z,8.03
2023-02-12T10:10:53.659Z,8.08
2023-02-12T10:13:08.979Z,8.17
2023-02-12T10:16:00.508Z,8.34
2023-02-12T10:18:33.835Z,8.44
2023-02-12T10:20:48.334Z,8.52
2023-02-12T10:23:27.944Z,8.62
2023-02-12T10:25:54.769Z,8.70
2023-02-12T10:28:07.773Z,8.78
2023-02-12T10:30:54.642Z,8.78
2023-02-12T10:33:03.997Z,8.81
2023-02-12T10:35:18.437Z,8.81
2023-02-12T10:37:52.735Z,8.90
2023-02-12T10:40:01.752Z,8.87
2023-02-12T10:42:44.158Z,8.87
2023-02-12T10:44:47.158Z,8.98
2023-02-12T10:46:49.729Z,9.01
2023-02-12T10:48:58.142Z,9.00
2023-02-12T10:51:09.260Z,8.98
2023-02-12T10:53:23.189Z,8.94
2023-02-12T10:55:28.753Z,8.92
2023-02-12T10:57:31.856Z,9.02
2023-02-12T10:59:35.059Z,9.13
2023-02-12T11:01:39.525Z,9.13
2023-02-12T11:03:41.554Z,9.10
2023-02-12T11:05:44.726Z,9.10
2023-02-12T11:07:49.890Z,9.16
2023-02-12T11:09:54.758Z,9.25
2023-02-12T11:11:58.789Z,9.24
2023-02-12T11:14:07.600Z,9.31
2023-02-12T11:16:10.801Z,9.43
2023-02-12T11:18:26.491Z,9.43
2023-02-12T11:20:33.037Z,9.48
2023-02-12T11:22:36.486Z,9.45
2023-02-12T11:24:39.011Z,9.38
2023-02-12T11:26:42.512Z,9.42
2023-02-12T11:28:55.493Z,9.43
2023-02-12T11:31:03.616Z,9.47
2023-02-12T11:33:35.007Z,9.53
2023-02-12T11:35:37.293Z,9.57
2023-02-12T11:37:44.989Z,9.55
2023-02-12T11:39:50.467Z,9.51
2023-02-12T11:41:56.430Z,9.49
2023-02-12T11:44:02.575Z,9.49
2023-02-12T11:46:06.775Z,9.52
2023-02-12T11:48:22.903Z,9.49
2023-02-12T11:50:29.767Z,9.58
2023-02-12T11:52:34.956Z,9.53
2023-02-12T11:54:46.315Z,9.52
2023-02-12T11:56:48.805Z,9.47
2023-02-12T11:58:51.945Z,9.55
2023-02-12T12:01:13.027Z,9.51
2023-02-12T12:03:35.521Z,9.40
2023-02-12T12:05:45.318Z,9.58
2023-02-12T12:07:56.367Z,9.54
2023-02-12T12:10:01.688Z,9.46
2023-02-12T12:12:07.133Z,9.48
2023-02-12T12:14:33.548Z,9.45
2023-02-12T12:17:13.309Z,9.41
2023-02-12T12:19:52.530Z,9.37
2023-02-12T12:21:57.928Z,9.23
2023-02-12T12:24:11.449Z,9.22
2023-02-12T12:26:22.212Z,9.33
2023-02-12T12:28:40.922Z,9.45
2023-02-12T12:30:43.224Z,9.45
2023-02-12T12:32:49.905Z,9.46
2023-02-12T12:34:52.741Z,9.47
2023-02-12T12:37:23.858Z,9.49
2023-02-12T12:39:33.718Z,9.53
2023-02-12T12:42:03.899Z,9.56
2023-02-12T12:44:17.948Z,9.53
2023-02-12T12:47:01.309Z,9.56
2023-02-12T12:49:24.955Z,9.59
2023-02-12T12:51:45.879Z,9.61
2023-02-12T12:54:15.891Z,9.52
2023-02-12T12:56:26.836Z,9.54
2023-02-12T12:58:47.142Z,9.57
2023-02-12T13:01:18.193Z,9.49
2023-02-12T13:03:32.035Z,9.51
2023-02-12T13:05:52.339Z,9.48
2023-02-12T13:08:05.810Z,9.45
2023-02-12T13:10:29.393Z,9.30
2023-02-12T13:12:57.831Z,9.21
2023-02-12T13:15:08.985Z,9.19
2023-02-12T13:17:23.377Z,9.26
2023-02-12T13:19:34.349Z,9.32
2023-02-12T13:22:01.250Z,9.32
2023-02-12T13:24:11.928Z,9.44
2023-02-12T13:26:45.317Z,9.42
2023-02-12T13:28:54.207Z,9.48
2023-02-12T13:30:56.923Z,9.52
2023-02-12T13:33:07.322Z,9.53
2023-02-12T13:35:16.956Z,9.49
2023-02-12T13:37:35.606Z,9.48
2023-02-12T13:39:43.902Z,9.46
2023-02-12T13:41:57.695Z,9.49
2023-02-12T13:44:18.605Z,9.47
2023-02-12T13:46:32.495Z,9.48
2023-02-12T13:48:47.132Z,9.47
2023-02-12T13:51:07.359Z,9.48
2023-02-12T13:53:46.702Z,9.52
2023-02-12T13:56:27.837Z,9.52
2023-02-12T13:58:39.051Z,9.49
2023-02-12T14:00:52.848Z,9.43
2023-02-12T14:02:56.011Z,9.36
2023-02-12T14:05:03.176Z,9.41
2023-02-12T14:07:12.938Z,9.32
2023-02-12T14:09:23.990Z,9.30
2023-02-12T14:11:27.252Z,9.37
2023-02-12T14:13:34.330Z,9.34
2023-02-12T14:15:40.196Z,9.32
2023-02-12T14:17:52.125Z,9.37
2023-02-12T14:19:56.866Z,9.32
2023-02-12T14:22:09.943Z,9.38
2023-02-12T14:24:36.684Z,9.30
2023-02-12T14:26:38.947Z,9.29
2023-02-12T14:28:59.071Z,9.22
2023-02-12T14:31:21.433Z,9.19
2023-02-12T14:33:27.297Z,9.23
2023-02-12T14:35:42.504Z,9.23
2023-02-12T14:37:44.651Z,9.31
2023-02-12T14:39:47.229Z,9.30
2023-02-12T14:41:51.913Z,9.25
2023-02-12T14:44:29.650Z,9.19
2023-02-12T14:46:38.014Z,9.12
2023-02-12T14:48:50.865Z,9.11
2023-02-12T14:50:53.670Z,9.02
2023-02-12T14:53:27.713Z,8.96
2023-02-12T14:55:35.047Z,8.99
2023-02-12T14:57:40.768Z,8.94
2023-02-12T14:59:45.038Z,8.99
2023-02-12T15:01:48.460Z,8.92
2023-02-12T15:03:55.176Z,8.88
2023-02-12T15:06:13.674Z,8.84
2023-02-12T15:08:32.923Z,8.78
2023-02-12T15:10:41.459Z,8.60
2023-02-12T15:13:02.412Z,8.63
2023-02-12T15:15:19.079Z,8.56
2023-02-12T15:17:32.716Z,8.52
2023-02-12T15:19:56.312Z,8.52
2023-02-12T15:21:58.912Z,8.55
2023-02-12T15:24:08.636Z,8.53
2023-02-12T15:26:20.667Z,8.53
2023-02-12T15:28:33.597Z,8.52
2023-02-12T15:30:37.595Z,8.47
2023-02-12T15:32:40.603Z,8.42
2023-02-12T15:34:43.312Z,8.39
2023-02-12T15:36:46.617Z,8.44
2023-02-12T15:38:52.716Z,8.39
2023-02-12T15:41:00.352Z,8.45
2023-02-12T15:43:07.747Z,8.46
2023-02-12T15:45:18.334Z,8.52
2023-02-12T15:47:24.878Z,8.53
2023-02-12T15:49:29.704Z,8.48
2023-02-12T15:51:41.723Z,8.41
2023-02-12T15:53:48.564Z,8.44
2023-02-12T15:55:58.020Z,8.45
2023-02-12T15:58:02.047Z,8.45
2023-02-12T16:00:14.193Z,8.41
2023-02-12T16:02:34.583Z,8.30
2023-02-12T16:04:38.121Z,8.34
2023-02-12T16:06:41.885Z,8.30
2023-02-12T16:08:47.019Z,8.17
2023-02-12T16:10:52.700Z,8.12
2023-02-12T16:12:55.521Z,8.11
2023-02-12T16:15:00.625Z,8.10
2023-02-12T16:17:03.001Z,8.10
2023-02-12T16:19:18.860Z,8.04
2023-02-12T16:21:23.663Z,8.01
2023-02-12T16:23:25.754Z,8.01
2023-02-12T16:25:30.961Z,7.98
2023-02-12T16:27:35.207Z,7.91
2023-02-12T16:29:44.858Z,7.87
2023-02-12T16:31:59.957Z,7.77
2023-02-12T16:34:02.065Z,7.81
2023-02-12T16:36:30.533Z,7.62
2023-02-12T16:38:47.301Z,7.59
2023-02-12T16:41:11.957Z,7.53
2023-02-12T16:43:26.902Z,7.45
2023-02-12T16:45:28.992Z,7.48
2023-02-12T16:47:30.997Z,7.44
2023-02-12T16:49:33.062Z,7.40
2023-02-12T16:51:37.161Z,7.34
2023-02-12T16:53:45.693Z,7.31
2023-02-12T16:55:47.835Z,7.27
2023-02-12T16:57:49.702Z,7.19
2023-02-12T16:59:51.892Z,7.16
2023-02-12T17:02:03.118Z,7.10
2023-02-12T17:04:08.830Z,7.04
2023-02-12T17:06:11.925Z,7.03
2023-02-12T17:08:16.762Z,6.99
2023-02-12T17:10:19.049Z,6.96
2023-02-12T17:12:21.454Z,6.90
2023-02-12T17:14:24.788Z,6.88
2023-02-12T17:16:35.988Z,6.84
2023-02-12T17:18:38.836Z,6.85
2023-02-12T17:20:41.522Z,6.79
2023-02-12T17:22:52.782Z,6.70
2023-02-12T17:24:54.943Z,6.72
2023-02-12T17:26:57.654Z,6.71
2023-02-12T17:29:05.561Z,6.70
2023-02-12T17:31:09.912Z,6.66
2023-02-12T17:33:12.286Z,6.63
2023-02-12T17:35:14.443Z,6.57
2023-02-12T17:37:20.878Z,6.54
2023-02-12T17:39:22.913Z,6.54
2023-02-12T17:41:25.690Z,6.49
2023-02-12T17:43:28.056Z,6.44
2023-02-12T17:45:33.616Z,6.45
2023-02-12T17:47:40.288Z,6.43
2023-02-12T17:49:45.047Z,6.41
2023-02-12T17:51:48.417Z,6.39
2023-02-12T17:54:02.856Z,6.29
2023-02-12T17:56:11.034Z,6.32
2023-02-12T17:58:13.258Z,6.31
2023-02-12T18:00:17.831Z,6.25
2023-02-12T18:02:24.674Z,6.25
2023-02-12T18:04:27.179Z,6.23
2023-02-12T18:06:31.229Z,6.18
2023-02-12T18:08:33.873Z,6.13
2023-02-12T18:10:43.655Z,6.07
2023-02-12T18:12:46.117Z,6.12
2023-02-12T18:14:48.771Z,6.14
2023-02-12T18:16:50.919Z,6.14
2023-02-12T18:18:53.170Z,6.14
2023-02-12T18:20:55.703Z,6.16
2023-02-12T18:23:00.527Z,6.16
2023-02-12T18:25:02.636Z,6.15
2023-02-12T18:27:04.817Z,6.15
2023-02-12T18:29:07.021Z,6.14
2023-02-12T18:31:10.028Z,6.13
2023-02-12T18:33:12.863Z,6.08
2023-02-12T18:35:16.063Z,5.94
2023-02-12T18:37:18.583Z,5.88
2023-02-12T18:39:20.632Z,5.87
2023-02-12T18:41:25.640Z,5.80
2023-02-12T18:43:28.345Z,5.85
2023-02-12T18:45:30.299Z,5.85
2023-02-12T18:47:32.588Z,5.90
2023-02-12T18:49:37.775Z,5.87
2023-02-12T18:51:41.294Z,5.86
2023-02-12T18:53:43.788Z,5.84
2023-02-12T18:55:46.555Z,5.82
2023-02-12T18:57:48.933Z,5.79
2023-02-12T18:59:51.195Z,5.78
2023-02-12T19:01:53.565Z,5.77
2023-02-12T19:03:59.137Z,5.72
2023-02-12T19:06:04.974Z,5.67
2023-02-12T19:08:07.606Z,5.70
2023-02-12T19:10:10.025Z,5.69
2023-02-12T19:12:12.066Z,5.65
2023-02-12T19:14:16.163Z,5.61
2023-02-12T19:16:21.426Z,5.60
2023-02-12T19:18:25.126Z,5.60
2023-02-12T19:20:27.179Z,5.59
2023-02-12T19:22:29.426Z,5.57
2023-02-12T19:24:45.615Z,5.54
2023-02-12T19:26:52.007Z,5.49
2023-02-12T19:28:54.350Z,5.46
2023-02-12T19:30:59.593Z,5.46
2023-02-12T19:33:05.567Z,5.43
2023-02-12T19:35:08.612Z,5.42
2023-02-12T19:37:11.800Z,5.39
2023-02-12T19:39:15.948Z,5.39
2023-02-12T19:41:20.980Z,5.38
2023-02-12T19:43:22.998Z,5.39
2023-02-12T19:45:24.976Z,5.39
2023-02-12T19:47:27.087Z,5.36
2023-02-12T19:49:29.835Z,5.32
2023-02-12T19:51:32.039Z,5.31
2023-02-12T19:53:34.289Z,5.28
2023-02-12T19:55:36.457Z,5.27
2023-02-12T19:57:38.946Z,5.23
2023-02-12T19:59:41.884Z,5.20
2023-02-12T20:01:44.536Z,5.15
2023-02-12T20:03:48.981Z,5.05
2023-02-12T20:05:53.335Z,4.99
2023-02-12T20:07:55.458Z,5.00
2023-02-12T20:09:57.663Z,4.93
2023-02-12T20:12:00.146Z,4.87
2023-02-12T20:14:02.474Z,4.83
2023-02-12T20:16:06.578Z,4.85
2023-02-12T20:18:09.043Z,4.84
2023-02-12T20:20:11.742Z,4.88
2023-02-12T20:22:14.050Z,4.82
2023-02-12T20:24:16.241Z,4.79
2023-02-12T20:26:20.097Z,4.85
2023-02-12T20:28:22.910Z,4.78
2023-02-12T20:30:25.339Z,4.74
2023-02-12T20:32:27.523Z,4.78
2023-02-12T20:34:32.945Z,4.76
2023-02-12T20:36:40.899Z,4.76
2023-02-12T20:38:44.967Z,4.78
2023-02-12T20:40:47.519Z,4.75
2023-02-12T20:42:49.760Z,4.74
2023-02-12T20:44:51.847Z,4.77
2023-02-12T20:46:57.327Z,4.73
2023-02-12T20:48:59.621Z,4.77
2023-02-12T20:51:13.411Z,4.67
2023-02-12T20:53:15.491Z,4.70
2023-02-12T20:55:17.730Z,4.71
2023-02-12T20:57:19.834Z,4.72
2023-02-12T20:59:22.059Z,4.71
2023-02-12T21:01:26.959Z,4.62
2023-02-12T21:03:29.474Z,4.51
2023-02-12T21:05:33.057Z,4.45
2023-02-12T21:07:35.581Z,4.44
2023-02-12T21:09:39.570Z,4.44
2023-02-12T21:11:45.732Z,4.36
2023-02-12T21:13:58.991Z,4.38
2023-02-12T21:16:11.445Z,4.26
2023-02-12T21:18:13.835Z,4.24
2023-02-12T21:20:16.032Z,4.29
2023-02-12T21:22:18.558Z,4.26
2023-02-12T21:24:24.260Z,4.30
2023-02-12T21:26:29.612Z,4.34
2023-02-12T21:28:32.972Z,4.35
2023-02-12T21:30:35.131Z,4.35
2023-02-12T21:32:37.211Z,4.29
2023-02-12T21:34:40.300Z,4.31
2023-02-12T21:36:45.378Z,4.23
2023-02-12T21:38:49.364Z,4.27
2023-02-12T21:40:51.869Z,4.24
2023-02-12T21:42:55.646Z,4.24
2023-02-12T21:44:57.781Z,4.26
2023-02-12T21:47:00.284Z,4.19
2023-02-12T21:49:03.525Z,4.19
2023-02-12T21:51:06.454Z,4.15
2023-02-12T21:53:08.753Z,4.13
2023-02-12T21:55:10.885Z,4.13
2023-02-12T21:57:18.627Z,4.09
2023-02-12T21:59:21.301Z,4.07
2023-02-12T22:01:26.772Z,4.02
2023-02-12T22:03:29.561Z,3.86
2023-02-12T22:05:34.979Z,3.71
2023-02-12T22:07:37.130Z,3.73
2023-02-12T22:09:39.792Z,3.75
2023-02-12T22:11:42.751Z,3.79
2023-02-12T22:13:45.705Z,3.78
2023-02-12T22:15:47.961Z,3.85
2023-02-12T22:17:50.268Z,3.86
2023-02-12T22:19:52.399Z,3.86
2023-02-12T22:21:54.611Z,3.85
2023-02-12T22:23:57.664Z,3.82
2023-02-12T22:26:11.557Z,3.73
2023-02-12T22:28:13.528Z,3.79
2023-02-12T22:30:16.852Z,3.79
2023-02-12T22:32:19.717Z,3.75
2023-02-12T22:34:21.864Z,3.70
2023-02-12T22:36:27.338Z,3.71
2023-02-12T22:38:29.905Z,3.69
2023-02-12T22:40:31.923Z,3.63
2023-02-12T22:42:33.955Z,3.68
2023-02-12T22:44:36.531Z,3.65
2023-02-12T22:46:38.819Z,3.65
2023-02-12T22:48:41.206Z,3.60
2023-02-12T22:50:43.278Z,3.57
2023-02-12T22:52:47.571Z,3.54
2023-02-12T22:54:49.941Z,3.57
2023-02-12T22:56:58.625Z,3.49
2023-02-12T22:59:02.068Z,3.51
2023-02-12T23:01:09.315Z,3.46
2023-02-12T23:03:11.548Z,3.40
2023-02-12T23:05:13.720Z,3.39
2023-02-12T23:07:16.376Z,3.35
2023-02-12T23:09:22.155Z,3.26
2023-02-12T23:11:26.295Z,3.22
2023-02-12T23:13:30.198Z,3.16
2023-02-12T23:15:51.957Z,3.10
2023-02-12T23:17:58.244Z,3.20
2023-02-12T23:20:01.184Z,3.19
2023-02-12T23:22:04.153Z,3.14
2023-02-12T23:24:17.782Z,3.13
2023-02-12T23:26:28.834Z,3.16
2023-02-12T23:28:37.408Z,3.06
2023-02-12T23:30:47.219Z,3.04
2023-02-12T23:32:53.112Z,2.91
2023-02-12T23:34:56.448Z,2.84
2023-02-12T23:37:13.845Z,2.75
2023-02-12T23:39:20.028Z,2.80
2023-02-12T23:41:25.391Z,2.76
2023-02-12T23:45:59.767Z,2.71
2023-02-12T23:48:53.145Z,2.72
2023-02-12T23:50:56.874Z,2.66
2023-02-12T23:53:03.292Z,2.63
2023-02-12T23:55:05.837Z,2.56
2023-02-12T23:57:07.771Z,2.50
2023-02-12T23:59:10.280Z,2.51
